createdAt,value
2023-07-16T00:00:41.631Z,1005.78
2023-07-16T00:01:41.629Z,1005.80
2023-07-16T00:02:41.622Z,1005.79
2023-07-16T00:03:41.937Z,1005.75
2023-07-16T00:04:41.638Z,1005.73
2023-07-16T00:05:41.551Z,1005.79
2023-07-16T00:06:41.552Z,1005.81
2023-07-16T00:07:41.530Z,1005.84
2023-07-16T00:08:41.579Z,1005.83
2023-07-16T00:09:41.521Z,1005.82
2023-07-16T00:10:41.515Z,1005.84
2023-07-16T00:11:41.496Z,1005.85
2023-07-16T00:12:41.514Z,1005.90
2023-07-16T00:13:41.527Z,1005.93
2023-07-16T00:14:41.518Z,1005.88
2023-07-16T00:15:41.443Z,1005.88
2023-07-16T00:16:41.504Z,1005.98
2023-07-16T00:17:41.481Z,1006.00
2023-07-16T00:18:41.447Z,1006.08
2023-07-16T00:19:41.393Z,1006.15
2023-07-16T00:20:41.413Z,1006.12
2023-07-16T00:21:41.374Z,1006.11
2023-07-16T00:22:41.429Z,1006.07
2023-07-16T00:23:41.366Z,1006.10
2023-07-16T00:24:41.384Z,1006.12
2023-07-16T00:25:41.332Z,1006.09
2023-07-16T00:26:41.359Z,1006.09
2023-07-16T00:27:41.309Z,1006.06
2023-07-16T00:28:41.306Z,1006.04
2023-07-16T00:29:41.296Z,1006.01
2023-07-16T00:30:41.376Z,1006.00
2023-07-16T00:31:41.257Z,1006.01
2023-07-16T00:32:41.312Z,1005.95
2023-07-16T00:33:41.242Z,1005.90
2023-07-16T00:34:42.192Z,1005.92
2023-07-16T00:35:41.211Z,1005.90
2023-07-16T00:36:41.240Z,1005.97
2023-07-16T00:37:41.192Z,1005.98
2023-07-16T00:38:41.191Z,1005.93
2023-07-16T00:39:41.173Z,1005.87
2023-07-16T00:40:41.168Z,1005.96
2023-07-16T00:41:41.148Z,1005.92
2023-07-16T00:42:41.167Z,1005.90
2023-07-16T00:43:41.126Z,1005.93
2023-07-16T00:44:41.127Z,1006.05
2023-07-16T00:45:41.109Z,1006.08
2023-07-16T00:46:41.151Z,1006.13
2023-07-16T00:47:41.126Z,1006.13
2023-07-16T00:48:41.106Z,1006.17
2023-07-16T00:49:41.067Z,1006.16
2023-07-16T00:50:41.062Z,1006.10
2023-07-16T00:51:41.068Z,1006.08
2023-07-16T00:52:41.071Z,1006.11
2023-07-16T00:53:41.034Z,1006.12
2023-07-16T00:54:41.008Z,1006.15
2023-07-16T00:55:41.032Z,1006.16
2023-07-16T00:56:40.985Z,1006.20
2023-07-16T00:57:40.978Z,1006.20
2023-07-16T00:58:40.983Z,1006.19
2023-07-16T00:59:40.987Z,1006.16
2023-07-16T01:00:40.950Z,1006.17
2023-07-16T01:01:40.974Z,1006.15
2023-07-16T01:02:41.016Z,1006.17
2023-07-16T01:03:40.910Z,1006.20
2023-07-16T01:04:40.971Z,1006.17
2023-07-16T01:05:40.909Z,1006.16
2023-07-16T01:06:40.979Z,1006.12
2023-07-16T01:07:40.875Z,1006.10
2023-07-16T01:08:40.875Z,1006.15
2023-07-16T01:09:40.835Z,1006.14
2023-07-16T01:10:40.849Z,1006.17
2023-07-16T01:11:40.813Z,1006.19
2023-07-16T01:12:40.844Z,1006.19
2023-07-16T01:13:40.799Z,1006.17
2023-07-16T01:14:40.919Z,1006.13
2023-07-16T01:15:40.778Z,1006.11
2023-07-16T01:16:40.856Z,1006.13
2023-07-16T01:17:40.781Z,1006.10
2023-07-16T01:18:40.744Z,1006.06
2023-07-16T01:19:40.727Z,1006.08
2023-07-16T01:20:40.744Z,1006.11
2023-07-16T01:21:40.700Z,1006.09
2023-07-16T01:22:40.782Z,1006.06
2023-07-16T01:23:40.717Z,1006.06
2023-07-16T01:24:40.676Z,1006.01
2023-07-16T01:25:40.661Z,1006.07
2023-07-16T01:26:40.674Z,1006.03
2023-07-16T01:27:41.420Z,1006.11
2023-07-16T01:28:40.678Z,1006.08
2023-07-16T01:29:40.628Z,1006.11
2023-07-16T01:30:40.631Z,1006.07
2023-07-16T01:31:40.655Z,1006.06
2023-07-16T01:32:40.625Z,1006.03
2023-07-16T01:33:40.618Z,1006.04
2023-07-16T01:34:40.569Z,1006.13
2023-07-16T01:35:41.447Z,1006.14
2023-07-16T01:36:40.566Z,1006.11
2023-07-16T01:37:40.543Z,1006.11
2023-07-16T01:38:40.543Z,1006.13
2023-07-16T01:39:40.570Z,1006.15
2023-07-16T01:40:40.502Z,1006.20
2023-07-16T01:41:40.497Z,1006.24
2023-07-16T01:42:40.481Z,1006.20
2023-07-16T01:43:40.460Z,1006.16
2023-07-16T01:44:40.464Z,1006.27
2023-07-16T01:45:40.577Z,1006.18
2023-07-16T01:46:40.645Z,1006.32
2023-07-16T01:47:40.478Z,1006.27
2023-07-16T01:48:40.411Z,1006.28
2023-07-16T01:49:40.410Z,1006.30
2023-07-16T01:50:40.430Z,1006.31
2023-07-16T01:51:40.419Z,1006.34
2023-07-16T01:52:40.369Z,1006.31
2023-07-16T01:53:40.393Z,1006.34
2023-07-16T01:54:40.349Z,1006.37
2023-07-16T01:55:40.331Z,1006.36
2023-07-16T01:56:40.341Z,1006.43
2023-07-16T01:57:40.307Z,1006.40
2023-07-16T01:58:40.301Z,1006.39
2023-07-16T01:59:40.314Z,1006.43
2023-07-16T02:00:40.288Z,1006.39
2023-07-16T02:01:40.299Z,1006.38
2023-07-16T02:02:40.284Z,1006.43
2023-07-16T02:03:40.361Z,1006.49
2023-07-16T02:04:40.241Z,1006.47
2023-07-16T02:05:40.225Z,1006.46
2023-07-16T02:06:40.238Z,1006.45
2023-07-16T02:07:40.227Z,1006.43
2023-07-16T02:08:40.185Z,1006.41
2023-07-16T02:09:40.200Z,1006.44
2023-07-16T02:10:40.182Z,1006.43
2023-07-16T02:11:40.157Z,1006.45
2023-07-16T02:12:40.173Z,1006.40
2023-07-16T02:13:40.132Z,1006.42
2023-07-16T02:14:40.153Z,1006.41
2023-07-16T02:15:40.171Z,1006.42
2023-07-16T02:16:40.500Z,1006.45
2023-07-16T02:17:40.115Z,1006.39
2023-07-16T02:18:40.089Z,1006.41
2023-07-16T02:19:40.084Z,1006.39
2023-07-16T02:20:40.063Z,1006.41
2023-07-16T02:21:40.100Z,1006.35
2023-07-16T02:22:40.119Z,1006.35
2023-07-16T02:23:40.028Z,1006.39
2023-07-16T02:24:40.044Z,1006.38
2023-07-16T02:25:40.023Z,1006.41
2023-07-16T02:26:40.004Z,1006.42
2023-07-16T02:27:40.009Z,1006.47
2023-07-16T02:28:39.969Z,1006.46
2023-07-16T02:29:39.953Z,1006.51
2023-07-16T02:30:40.012Z,1006.50
2023-07-16T02:31:40.858Z,1006.54
2023-07-16T02:32:39.971Z,1006.51
2023-07-16T02:33:39.934Z,1006.56
2023-07-16T02:34:39.915Z,1006.53
2023-07-16T02:35:39.921Z,1006.52
2023-07-16T02:36:39.940Z,1006.53
2023-07-16T02:37:39.866Z,1006.58
2023-07-16T02:38:39.867Z,1006.54
2023-07-16T02:39:39.852Z,1006.61
2023-07-16T02:40:39.874Z,1006.60
2023-07-16T02:41:39.840Z,1006.58
2023-07-16T02:42:39.817Z,1006.62
2023-07-16T02:43:39.846Z,1006.60
2023-07-16T02:44:39.808Z,1006.70
2023-07-16T02:45:39.792Z,1006.60
2023-07-16T02:46:39.828Z,1006.65
2023-07-16T02:47:39.861Z,1006.59
2023-07-16T02:48:39.803Z,1006.69
2023-07-16T02:49:39.746Z,1006.67
2023-07-16T02:50:39.741Z,1006.65
2023-07-16T02:51:39.723Z,1006.75
2023-07-16T02:52:39.731Z,1006.75
2023-07-16T02:53:40.659Z,1006.82
2023-07-16T02:54:39.737Z,1006.76
2023-07-16T02:55:39.684Z,1006.76
2023-07-16T02:56:39.676Z,1006.73
2023-07-16T02:57:39.819Z,1006.71
2023-07-16T02:58:39.676Z,1006.75
2023-07-16T02:59:39.644Z,1006.74
2023-07-16T03:00:39.762Z,1006.73
2023-07-16T03:01:39.735Z,1006.70
2023-07-16T03:02:39.714Z,1006.77
2023-07-16T03:03:39.620Z,1006.76
2023-07-16T03:04:39.655Z,1006.75
2023-07-16T03:05:39.571Z,1006.75
2023-07-16T03:06:39.560Z,1006.81
2023-07-16T03:07:39.536Z,1006.78
2023-07-16T03:08:39.537Z,1006.78
2023-07-16T03:09:39.556Z,1006.79
2023-07-16T03:10:39.558Z,1006.84
2023-07-16T03:11:39.516Z,1006.83
2023-07-16T03:12:39.563Z,1006.93
2023-07-16T03:13:39.477Z,1006.88
2023-07-16T03:14:39.479Z,1006.90
2023-07-16T03:15:39.459Z,1006.94
2023-07-16T03:16:40.508Z,1006.95
2023-07-16T03:17:39.501Z,1006.91
2023-07-16T03:18:39.454Z,1006.96
2023-07-16T03:19:39.431Z,1006.97
2023-07-16T03:20:39.694Z,1006.98
2023-07-16T03:21:39.417Z,1006.99
2023-07-16T03:22:39.440Z,1006.96
2023-07-16T03:23:39.391Z,1007.05
2023-07-16T03:24:39.666Z,1007.03
2023-07-16T03:25:39.376Z,1007.00
2023-07-16T03:26:39.336Z,1007.02
2023-07-16T03:27:40.192Z,1007.00
2023-07-16T03:28:39.318Z,1007.02
2023-07-16T03:29:40.143Z,1007.05
2023-07-16T03:30:39.339Z,1007.02
2023-07-16T03:31:39.289Z,1007.07
2023-07-16T03:32:50.626Z,1007.12
2023-07-16T03:33:40.286Z,1007.11
2023-07-16T03:34:39.279Z,1007.17
2023-07-16T03:35:39.253Z,1007.21
2023-07-16T03:36:39.239Z,1007.20
2023-07-16T03:37:39.205Z,1007.25
2023-07-16T03:38:39.243Z,1007.27
2023-07-16T03:39:39.212Z,1007.26
2023-07-16T03:40:39.211Z,1007.28
2023-07-16T03:41:39.182Z,1007.26
2023-07-16T03:42:39.181Z,1007.38
2023-07-16T03:43:41.616Z,1007.31
2023-07-16T03:44:39.148Z,1007.38
2023-07-16T03:45:39.170Z,1007.45
2023-07-16T03:46:39.123Z,1007.47
2023-07-16T03:47:39.446Z,1007.44
2023-07-16T03:48:39.137Z,1007.43
2023-07-16T03:49:39.092Z,1007.44
2023-07-16T03:50:39.091Z,1007.46
2023-07-16T03:51:39.087Z,1007.48
2023-07-16T03:52:39.171Z,1007.50
2023-07-16T03:53:39.045Z,1007.56
2023-07-16T03:54:39.037Z,1007.54
2023-07-16T03:55:39.057Z,1007.52
2023-07-16T03:56:39.066Z,1007.56
2023-07-16T03:57:38.991Z,1007.56
2023-07-16T03:58:39.036Z,1007.54
2023-07-16T03:59:38.981Z,1007.52
2023-07-16T04:00:38.979Z,1007.52
2023-07-16T04:01:38.963Z,1007.61
2023-07-16T04:02:38.966Z,1007.59
2023-07-16T04:03:38.949Z,1007.60
2023-07-16T04:04:38.994Z,1007.62
2023-07-16T04:05:38.919Z,1007.66
2023-07-16T04:06:38.902Z,1007.72
2023-07-16T04:07:38.904Z,1007.69
2023-07-16T04:08:38.888Z,1007.69
2023-07-16T04:09:39.017Z,1007.73
2023-07-16T04:10:38.859Z,1007.74
2023-07-16T04:11:38.856Z,1007.71
2023-07-16T04:12:39.635Z,1007.74
2023-07-16T04:13:38.814Z,1007.77
2023-07-16T04:14:38.805Z,1007.78
2023-07-16T04:15:38.792Z,1007.73
2023-07-16T04:16:39.185Z,1007.77
2023-07-16T04:17:38.864Z,1007.80
2023-07-16T04:18:38.774Z,1007.83
2023-07-16T04:19:38.764Z,1007.81
2023-07-16T04:20:38.777Z,1007.80
2023-07-16T04:21:39.325Z,1007.78
2023-07-16T04:22:39.716Z,1007.82
2023-07-16T04:23:38.779Z,1007.88
2023-07-16T04:24:38.723Z,1007.87
2023-07-16T04:25:38.692Z,1007.89
2023-07-16T04:26:38.672Z,1007.90
2023-07-16T04:27:39.041Z,1007.95
2023-07-16T04:28:38.678Z,1007.93
2023-07-16T04:29:38.666Z,1007.95
2023-07-16T04:30:38.982Z,1007.87
2023-07-16T04:31:38.639Z,1007.89
2023-07-16T04:32:38.635Z,1007.86
2023-07-16T04:33:38.633Z,1007.91
2023-07-16T04:34:38.588Z,1007.88
2023-07-16T04:35:38.623Z,1007.84
2023-07-16T04:36:38.563Z,1007.92
2023-07-16T04:37:38.560Z,1007.89
2023-07-16T04:38:40.533Z,1007.90
2023-07-16T04:39:40.501Z,1007.90
2023-07-16T04:40:38.540Z,1007.92
2023-07-16T04:41:38.558Z,1007.90
2023-07-16T04:42:38.512Z,1007.96
2023-07-16T04:43:38.619Z,1007.95
2023-07-16T04:44:40.425Z,1008.00
2023-07-16T04:45:38.488Z,1008.00
2023-07-16T04:46:38.585Z,1008.01
2023-07-16T04:47:39.267Z,1008.00
2023-07-16T04:48:38.472Z,1007.99
2023-07-16T04:49:40.410Z,1008.02
2023-07-16T04:50:38.414Z,1008.04
2023-07-16T04:51:38.448Z,1008.09
2023-07-16T04:52:38.380Z,1008.11
2023-07-16T04:53:40.833Z,1008.10
2023-07-16T04:54:38.420Z,1008.07
2023-07-16T04:55:38.672Z,1008.06
2023-07-16T04:56:38.335Z,1008.10
2023-07-16T04:57:38.699Z,1008.17
2023-07-16T04:58:38.313Z,1008.12
2023-07-16T04:59:38.318Z,1008.16
2023-07-16T05:00:39.158Z,1008.10
2023-07-16T05:01:38.357Z,1008.13
2023-07-16T05:02:38.362Z,1008.14
2023-07-16T05:03:38.520Z,1008.19
2023-07-16T05:04:38.281Z,1008.17
2023-07-16T05:05:38.265Z,1008.21
2023-07-16T05:06:38.265Z,1008.19
2023-07-16T05:07:40.188Z,1008.21
2023-07-16T05:08:38.213Z,1008.17
2023-07-16T05:09:38.199Z,1008.24
2023-07-16T05:10:38.257Z,1008.27
2023-07-16T05:11:39.010Z,1008.33
2023-07-16T05:12:38.183Z,1008.24
2023-07-16T05:13:38.170Z,1008.25
2023-07-16T05:14:38.147Z,1008.21
2023-07-16T05:15:38.133Z,1008.32
2023-07-16T05:16:38.186Z,1008.26
2023-07-16T05:17:38.280Z,1008.31
2023-07-16T05:18:38.151Z,1008.21
2023-07-16T05:19:39.365Z,1008.19
2023-07-16T05:20:38.068Z,1008.25
2023-07-16T05:21:38.111Z,1008.26
2023-07-16T05:22:38.113Z,1008.30
2023-07-16T05:23:38.074Z,1008.28
2023-07-16T05:24:38.039Z,1008.29
2023-07-16T05:25:38.042Z,1008.32
2023-07-16T05:26:38.039Z,1008.29
2023-07-16T05:27:38.016Z,1008.31
2023-07-16T05:28:39.968Z,1008.31
2023-07-16T05:29:38.020Z,1008.35
2023-07-16T05:30:37.995Z,1008.42
2023-07-16T05:31:38.805Z,1008.35
2023-07-16T05:32:37.966Z,1008.49
2023-07-16T05:33:38.032Z,1008.39
2023-07-16T05:34:39.928Z,1008.48
2023-07-16T05:35:39.878Z,1008.47
2023-07-16T05:36:38.740Z,1008.46
2023-07-16T05:37:37.989Z,1008.49
2023-07-16T05:38:37.869Z,1008.48
2023-07-16T05:39:39.838Z,1008.51
2023-07-16T05:40:37.879Z,1008.51
2023-07-16T05:41:39.357Z,1008.43
2023-07-16T05:42:39.799Z,1008.46
2023-07-16T05:43:39.257Z,1008.50
2023-07-16T05:44:37.826Z,1008.47
2023-07-16T05:45:37.803Z,1008.54
2023-07-16T05:46:37.876Z,1008.53
2023-07-16T05:47:37.864Z,1008.52
2023-07-16T05:48:37.953Z,1008.55
2023-07-16T05:49:37.809Z,1008.56
2023-07-16T05:50:37.842Z,1008.59
2023-07-16T05:51:37.746Z,1008.53
2023-07-16T05:52:37.726Z,1008.58
2023-07-16T05:53:37.739Z,1008.50
2023-07-16T05:54:37.731Z,1008.57
2023-07-16T05:55:38.507Z,1008.51
2023-07-16T05:56:39.654Z,1008.58
2023-07-16T05:57:37.666Z,1008.52
2023-07-16T05:58:37.674Z,1008.48
2023-07-16T05:59:39.614Z,1008.56
2023-07-16T06:00:37.762Z,1008.55
2023-07-16T06:01:37.706Z,1008.54
2023-07-16T06:02:37.716Z,1008.56
2023-07-16T06:03:37.689Z,1008.59
2023-07-16T06:04:37.834Z,1008.55
2023-07-16T06:05:37.577Z,1008.61
2023-07-16T06:06:37.792Z,1008.64
2023-07-16T06:07:37.605Z,1008.63
2023-07-16T06:08:37.573Z,1008.64
2023-07-16T06:09:37.570Z,1008.70
2023-07-16T06:10:37.566Z,1008.65
2023-07-16T06:11:39.492Z,1008.66
2023-07-16T06:12:39.446Z,1008.62
2023-07-16T06:13:37.538Z,1008.62
2023-07-16T06:14:37.484Z,1008.60
2023-07-16T06:15:37.514Z,1008.63
2023-07-16T06:16:37.500Z,1008.60
2023-07-16T06:17:37.851Z,1008.65
2023-07-16T06:18:39.403Z,1008.63
2023-07-16T06:19:37.471Z,1008.62
2023-07-16T06:20:37.424Z,1008.64
2023-07-16T06:21:37.428Z,1008.61
2023-07-16T06:22:37.485Z,1008.66
2023-07-16T06:23:37.386Z,1008.72
2023-07-16T06:24:37.397Z,1008.67
2023-07-16T06:25:37.401Z,1008.72
2023-07-16T06:26:37.376Z,1008.68
2023-07-16T06:27:39.337Z,1008.68
2023-07-16T06:28:37.366Z,1008.71
2023-07-16T06:29:39.304Z,1008.74
2023-07-16T06:30:37.604Z,1008.75
2023-07-16T06:31:37.496Z,1008.80
2023-07-16T06:32:37.790Z,1008.79
2023-07-16T06:33:39.264Z,1008.81
2023-07-16T06:34:39.225Z,1008.84
2023-07-16T06:35:37.252Z,1008.91
2023-07-16T06:36:37.548Z,1008.94
2023-07-16T06:37:38.091Z,1008.93
2023-07-16T06:38:38.175Z,1008.91
2023-07-16T06:39:37.307Z,1008.95
2023-07-16T06:40:37.484Z,1008.97
2023-07-16T06:41:39.214Z,1008.97
2023-07-16T06:42:39.144Z,1009.07
2023-07-16T06:43:38.139Z,1009.01
2023-07-16T06:44:37.253Z,1008.94
2023-07-16T06:45:37.238Z,1008.94
2023-07-16T06:46:37.188Z,1009.01
2023-07-16T06:47:39.147Z,1009.02
2023-07-16T06:48:37.148Z,1008.98
2023-07-16T06:49:37.190Z,1009.04
2023-07-16T06:50:37.871Z,1009.07
2023-07-16T06:51:37.221Z,1009.01
2023-07-16T06:52:37.923Z,1009.00
2023-07-16T06:53:37.067Z,1008.96
2023-07-16T06:54:37.037Z,1009.00
2023-07-16T06:55:37.098Z,1008.94
2023-07-16T06:56:37.050Z,1009.01
2023-07-16T06:57:37.024Z,1008.88
2023-07-16T06:58:38.961Z,1008.99
2023-07-16T06:59:39.005Z,1008.99
2023-07-16T07:00:36.973Z,1008.96
2023-07-16T07:01:37.102Z,1009.06
2023-07-16T07:02:38.988Z,1009.00
2023-07-16T07:03:37.014Z,1009.00
2023-07-16T07:04:36.952Z,1009.00
2023-07-16T07:05:36.929Z,1008.96
2023-07-16T07:06:36.914Z,1009.04
2023-07-16T07:07:37.713Z,1009.00
2023-07-16T07:08:36.906Z,1008.98
2023-07-16T07:09:38.876Z,1008.94
2023-07-16T07:10:36.861Z,1008.93
2023-07-16T07:11:36.864Z,1009.00
2023-07-16T07:12:38.812Z,1009.01
2023-07-16T07:13:36.860Z,1009.05
2023-07-16T07:14:36.829Z,1009.07
2023-07-16T07:15:36.841Z,1009.03
2023-07-16T07:16:36.883Z,1009.09
2023-07-16T07:17:36.934Z,1009.09
2023-07-16T07:18:36.810Z,1008.97
2023-07-16T07:19:36.755Z,1008.97
2023-07-16T07:20:38.750Z,1009.10
2023-07-16T07:21:36.809Z,1009.10
2023-07-16T07:22:38.745Z,1009.14
2023-07-16T07:23:36.820Z,1009.11
2023-07-16T07:24:36.698Z,1009.09
2023-07-16T07:25:36.701Z,1009.10
2023-07-16T07:26:36.697Z,1009.08
2023-07-16T07:27:38.662Z,1009.04
2023-07-16T07:28:36.667Z,1009.09
2023-07-16T07:29:36.682Z,1009.10
2023-07-16T07:30:36.679Z,1009.04
2023-07-16T07:31:36.694Z,1009.08
2023-07-16T07:32:36.720Z,1009.09
2023-07-16T07:33:36.641Z,1009.14
2023-07-16T07:34:36.667Z,1009.13
2023-07-16T07:35:36.607Z,1009.12
2023-07-16T07:36:36.631Z,1009.12
2023-07-16T07:37:37.390Z,1009.07
2023-07-16T07:38:36.613Z,1009.12
2023-07-16T07:39:37.100Z,1009.06
2023-07-16T07:40:36.556Z,1009.09
2023-07-16T07:41:37.310Z,1009.03
2023-07-16T07:42:36.799Z,1009.00
2023-07-16T07:43:36.506Z,1009.03
2023-07-16T07:44:36.510Z,1009.02
2023-07-16T07:45:36.502Z,1009.09
2023-07-16T07:46:36.510Z,1009.00
2023-07-16T07:47:36.542Z,1009.11
2023-07-16T07:48:37.231Z,1009.09
2023-07-16T07:49:36.468Z,1009.08
2023-07-16T07:50:36.437Z,1009.14
2023-07-16T07:51:36.500Z,1009.10
2023-07-16T07:52:36.384Z,1009.09
2023-07-16T07:53:36.432Z,1009.04
2023-07-16T07:54:36.355Z,1009.08
2023-07-16T07:55:36.422Z,1009.12
2023-07-16T07:56:36.414Z,1009.07
2023-07-16T07:57:36.410Z,1009.06
2023-07-16T07:58:36.389Z,1009.07
2023-07-16T07:59:38.283Z,1009.12
2023-07-16T08:00:36.340Z,1009.09
2023-07-16T08:01:36.302Z,1009.09
2023-07-16T08:02:37.138Z,1009.06
2023-07-16T08:03:36.695Z,1009.14
2023-07-16T08:04:36.497Z,1009.18
2023-07-16T08:05:36.256Z,1009.16
2023-07-16T08:06:36.235Z,1009.21
2023-07-16T08:07:36.508Z,1009.15
2023-07-16T08:08:36.263Z,1009.06
2023-07-16T08:09:36.220Z,1009.09
2023-07-16T08:10:36.214Z,1009.20
2023-07-16T08:11:36.209Z,1009.14
2023-07-16T08:12:36.188Z,1009.15
2023-07-16T08:13:36.216Z,1009.11
2023-07-16T08:14:36.185Z,1009.17
2023-07-16T08:15:36.140Z,1009.19
2023-07-16T08:16:36.177Z,1009.26
2023-07-16T08:17:36.271Z,1009.22
2023-07-16T08:18:36.143Z,1009.33
2023-07-16T08:19:36.124Z,1009.26
2023-07-16T08:20:36.098Z,1009.26
2023-07-16T08:21:38.086Z,1009.22
2023-07-16T08:22:36.117Z,1009.27
2023-07-16T08:23:36.062Z,1009.28
2023-07-16T08:24:36.236Z,1009.39
2023-07-16T08:25:36.041Z,1009.34
2023-07-16T08:26:36.038Z,1009.26
2023-07-16T08:27:36.077Z,1009.31
2023-07-16T08:28:35.993Z,1009.28
2023-07-16T08:29:36.018Z,1009.46
2023-07-16T08:30:36.049Z,1009.35
2023-07-16T08:31:37.433Z,1009.30
2023-07-16T08:32:36.076Z,1009.33
2023-07-16T08:33:35.971Z,1009.29
2023-07-16T08:34:35.974Z,1009.37
2023-07-16T08:35:37.377Z,1009.32
2023-07-16T08:36:36.758Z,1009.35
2023-07-16T08:37:35.963Z,1009.35
2023-07-16T08:38:35.896Z,1009.44
2023-07-16T08:39:35.868Z,1009.44
2023-07-16T08:40:35.903Z,1009.44
2023-07-16T08:41:35.852Z,1009.39
2023-07-16T08:42:35.976Z,1009.39
2023-07-16T08:43:36.042Z,1009.52
2023-07-16T08:44:35.841Z,1009.43
2023-07-16T08:45:35.821Z,1009.44
2023-07-16T08:46:36.676Z,1009.55
2023-07-16T08:47:36.719Z,1009.48
2023-07-16T08:48:35.831Z,1009.49
2023-07-16T08:49:35.781Z,1009.48
2023-07-16T08:50:35.761Z,1009.40
2023-07-16T08:51:37.219Z,1009.46
2023-07-16T08:52:35.747Z,1009.53
2023-07-16T08:53:35.751Z,1009.44
2023-07-16T08:54:37.191Z,1009.45
2023-07-16T08:55:36.035Z,1009.46
2023-07-16T08:56:35.709Z,1009.47
2023-07-16T08:57:35.680Z,1009.48
2023-07-16T08:58:36.642Z,1009.43
2023-07-16T08:59:37.113Z,1009.47
2023-07-16T09:00:35.653Z,1009.40
2023-07-16T09:01:35.713Z,1009.55
2023-07-16T09:02:35.850Z,1009.54
2023-07-16T09:03:35.598Z,1009.56
2023-07-16T09:04:37.081Z,1009.54
2023-07-16T09:05:40.204Z,1009.52
2023-07-16T09:06:36.045Z,1009.58
2023-07-16T09:07:35.770Z,1009.48
2023-07-16T09:08:35.649Z,1009.67
2023-07-16T09:09:37.004Z,1009.54
2023-07-16T09:10:36.995Z,1009.50
2023-07-16T09:11:35.572Z,1009.61
2023-07-16T09:12:35.600Z,1009.47
2023-07-16T09:13:36.962Z,1009.59
2023-07-16T09:14:35.542Z,1009.57
2023-07-16T09:15:36.956Z,1009.52
2023-07-16T09:16:35.552Z,1009.67
2023-07-16T09:17:35.626Z,1009.61
2023-07-16T09:18:35.550Z,1009.60
2023-07-16T09:19:35.453Z,1009.55
2023-07-16T09:20:35.431Z,1009.66
2023-07-16T09:21:36.881Z,1009.61
2023-07-16T09:22:35.495Z,1009.60
2023-07-16T09:23:35.473Z,1009.60
2023-07-16T09:24:35.548Z,1009.65
2023-07-16T09:25:35.384Z,1009.65
2023-07-16T09:26:35.392Z,1009.62
2023-07-16T09:27:35.362Z,1009.55
2023-07-16T09:28:35.341Z,1009.56
2023-07-16T09:29:37.823Z,1009.56
2023-07-16T09:30:35.387Z,1009.62
2023-07-16T09:31:36.806Z,1009.62
2023-07-16T09:32:36.818Z,1009.56
2023-07-16T09:33:35.301Z,1009.59
2023-07-16T09:34:35.276Z,1009.62
2023-07-16T09:35:35.320Z,1009.62
2023-07-16T09:36:35.292Z,1009.61
2023-07-16T09:37:35.261Z,1009.61
2023-07-16T09:38:35.256Z,1009.61
2023-07-16T09:39:35.226Z,1009.70
2023-07-16T09:40:35.224Z,1009.64
2023-07-16T09:41:35.200Z,1009.71
2023-07-16T09:42:35.262Z,1009.77
2023-07-16T09:43:35.419Z,1009.65
2023-07-16T09:44:35.175Z,1009.76
2023-07-16T09:45:35.171Z,1009.79
2023-07-16T09:46:35.168Z,1009.82
2023-07-16T09:47:35.153Z,1009.70
2023-07-16T09:48:35.956Z,1009.63
2023-07-16T09:49:35.958Z,1009.74
2023-07-16T09:50:35.397Z,1009.70
2023-07-16T09:51:35.271Z,1009.73
2023-07-16T09:52:35.545Z,1009.77
2023-07-16T09:53:35.508Z,1009.70
2023-07-16T09:54:35.176Z,1009.72
2023-07-16T09:55:35.085Z,1009.72
2023-07-16T09:56:36.526Z,1009.75
2023-07-16T09:57:35.168Z,1009.72
2023-07-16T09:58:35.027Z,1009.70
2023-07-16T09:59:35.004Z,1009.75
2023-07-16T10:00:36.474Z,1009.76
2023-07-16T10:01:35.103Z,1009.75
2023-07-16T10:02:35.036Z,1009.73
2023-07-16T10:03:35.380Z,1009.72
2023-07-16T10:04:34.972Z,1009.76
2023-07-16T10:05:34.966Z,1009.87
2023-07-16T10:06:34.922Z,1009.79
2023-07-16T10:07:34.921Z,1009.73
2023-07-16T10:08:34.935Z,1009.75
2023-07-16T10:09:34.887Z,1009.79
2023-07-16T10:10:34.879Z,1009.84
2023-07-16T10:11:34.856Z,1009.83
2023-07-16T10:12:34.919Z,1009.84
2023-07-16T10:13:34.873Z,1009.79
2023-07-16T10:14:34.867Z,1009.77
2023-07-16T10:15:34.811Z,1009.85
2023-07-16T10:16:34.854Z,1009.80
2023-07-16T10:17:35.678Z,1009.82
2023-07-16T10:18:34.833Z,1009.74
2023-07-16T10:19:34.777Z,1009.79
2023-07-16T10:20:34.793Z,1009.84
2023-07-16T10:21:34.772Z,1009.83
2023-07-16T10:22:34.823Z,1009.89
2023-07-16T10:23:34.808Z,1009.89
2023-07-16T10:24:34.724Z,1009.88
2023-07-16T10:25:34.702Z,1009.85
2023-07-16T10:26:34.691Z,1009.96
2023-07-16T10:27:34.712Z,1009.91
2023-07-16T10:28:35.481Z,1009.94
2023-07-16T10:29:36.125Z,1009.88
2023-07-16T10:30:34.739Z,1009.91
2023-07-16T10:31:34.691Z,1009.97
2023-07-16T10:32:34.729Z,1009.94
2023-07-16T10:33:34.694Z,1009.84
2023-07-16T10:34:34.704Z,1010.01
2023-07-16T10:35:34.663Z,1009.81
2023-07-16T10:36:34.611Z,1009.92
2023-07-16T10:37:36.065Z,1009.82
2023-07-16T10:38:34.585Z,1010.03
2023-07-16T10:39:35.077Z,1010.01
2023-07-16T10:40:36.070Z,1009.98
2023-07-16T10:41:34.618Z,1009.98
2023-07-16T10:42:34.532Z,1010.00
2023-07-16T10:43:34.514Z,1009.95
2023-07-16T10:44:34.606Z,1009.95
2023-07-16T10:45:34.579Z,1009.96
2023-07-16T10:46:34.879Z,1010.00
2023-07-16T10:47:34.760Z,1010.06
2023-07-16T10:48:35.089Z,1010.06
2023-07-16T10:49:36.070Z,1010.02
2023-07-16T10:50:34.880Z,1009.97
2023-07-16T10:51:36.066Z,1009.94
2023-07-16T10:52:34.467Z,1009.99
2023-07-16T10:53:36.074Z,1009.98
2023-07-16T10:54:35.231Z,1009.97
2023-07-16T10:55:36.570Z,1009.96
2023-07-16T10:56:34.387Z,1009.97
2023-07-16T10:57:35.160Z,1010.00
2023-07-16T10:58:35.161Z,1010.03
2023-07-16T10:59:35.082Z,1010.02
2023-07-16T11:00:35.287Z,1010.03
2023-07-16T11:01:35.161Z,1010.06
2023-07-16T11:02:34.574Z,1010.08
2023-07-16T11:03:34.437Z,1009.97
2023-07-16T11:04:34.330Z,1010.01
2023-07-16T11:05:36.088Z,1009.98
2023-07-16T11:06:34.344Z,1010.02
2023-07-16T11:07:34.329Z,1010.00
2023-07-16T11:08:34.251Z,1010.00
2023-07-16T11:09:34.263Z,1010.10
2023-07-16T11:10:36.093Z,1010.03
2023-07-16T11:11:35.107Z,1010.12
2023-07-16T11:12:34.216Z,1010.07
2023-07-16T11:13:34.232Z,1010.09
2023-07-16T11:14:34.992Z,1010.06
2023-07-16T11:15:34.257Z,1010.07
2023-07-16T11:16:36.140Z,1010.05
2023-07-16T11:17:35.037Z,1010.08
2023-07-16T11:18:35.094Z,1010.14
2023-07-16T11:19:34.142Z,1010.04
2023-07-16T11:20:35.083Z,1010.00
2023-07-16T11:21:34.093Z,1010.07
2023-07-16T11:22:34.136Z,1010.04
2023-07-16T11:23:34.102Z,1010.07
2023-07-16T11:24:34.057Z,1010.11
2023-07-16T11:25:34.911Z,1010.09
2023-07-16T11:26:36.026Z,1010.09
2023-07-16T11:27:36.097Z,1010.09
2023-07-16T11:28:34.061Z,1010.11
2023-07-16T11:29:34.435Z,1010.16
2023-07-16T11:30:34.017Z,1010.14
2023-07-16T11:31:34.015Z,1010.17
2023-07-16T11:32:36.039Z,1010.22
2023-07-16T11:33:34.024Z,1010.14
2023-07-16T11:34:35.954Z,1010.15
2023-07-16T11:35:35.917Z,1010.17
2023-07-16T11:36:34.323Z,1010.23
2023-07-16T11:37:34.738Z,1010.25
2023-07-16T11:38:34.643Z,1010.12
2023-07-16T11:39:35.907Z,1010.16
2023-07-16T11:40:33.918Z,1010.22
2023-07-16T11:41:33.911Z,1010.10
2023-07-16T11:42:33.930Z,1010.28
2023-07-16T11:43:33.860Z,1010.19
2023-07-16T11:44:35.820Z,1010.25
2023-07-16T11:45:35.837Z,1010.24
2023-07-16T11:46:33.875Z,1010.22
2023-07-16T11:47:33.919Z,1010.24
2023-07-16T11:48:33.926Z,1010.22
2023-07-16T11:49:35.744Z,1010.18
2023-07-16T11:50:35.768Z,1010.28
2023-07-16T11:51:33.771Z,1010.20
2023-07-16T11:52:33.820Z,1010.24
2023-07-16T11:53:33.858Z,1010.26
2023-07-16T11:54:33.767Z,1010.25
2023-07-16T11:55:34.511Z,1010.24
2023-07-16T11:56:33.737Z,1010.26
2023-07-16T11:57:33.738Z,1010.19
2023-07-16T11:58:34.017Z,1010.27
2023-07-16T11:59:34.515Z,1010.27
2023-07-16T12:00:35.214Z,1010.24
2023-07-16T12:01:33.917Z,1010.31
2023-07-16T12:02:35.775Z,1010.27
2023-07-16T12:03:35.619Z,1010.23
2023-07-16T12:04:33.627Z,1010.21
2023-07-16T12:05:50.283Z,1010.23